sensor_id;sensor_type;location;lat;lon;timestamp;P1;durP1;ratioP1;P2;durP2;ratioP2
52186;SDS011;38161;53.020;6.598;2023-11-19T00:00:43;30.95;;;19.38;;
52186;SDS011;38161;53.020;6.598;2023-11-19T00:03:10;32.38;;;18.08;;
52186;SDS011;38161;53.020;6.598;2023-11-19T00:05:36;28.73;;;18.35;;
52186;SDS011;38161;53.020;6.598;2023-11-19T00:08:02;28.77;;;18.30;;
52186;SDS011;38161;53.020;6.598;2023-11-19T00:10:28;31.02;;;17.10;;
52186;SDS011;38161;53.020;6.598;2023-11-19T00:12:54;33.92;;;18.30;;
52186;SDS011;38161;53.020;6.598;2023-11-19T00:15:22;37.80;;;21.10;;
52186;SDS011;38161;53.020;6.598;2023-11-19T00:17:49;36.47;;;18.40;;
52186;SDS011;38161;53.020;6.598;2023-11-19T00:20:16;30.40;;;18.58;;
52186;SDS011;38161;53.020;6.598;2023-11-19T00:22:44;29.85;;;16.50;;
52186;SDS011;38161;53.020;6.598;2023-11-19T00:25:13;28.45;;;15.00;;
52186;SDS011;38161;53.020;6.598;2023-11-19T00:27:40;28.70;;;15.85;;
52186;SDS011;38161;53.020;6.598;2023-11-19T00:30:10;35.15;;;16.77;;
52186;SDS011;38161;53.020;6.598;2023-11-19T00:32:36;27.33;;;14.48;;
52186;SDS011;38161;53.020;6.598;2023-11-19T00:35:05;30.88;;;14.85;;
52186;SDS011;38161;53.020;6.598;2023-11-19T00:37:31;32.80;;;16.15;;
52186;SDS011;38161;53.020;6.598;2023-11-19T00:39:57;35.03;;;14.48;;
52186;SDS011;38161;53.020;6.598;2023-11-19T00:42:23;28.38;;;13.65;;
52186;SDS011;38161;53.020;6.598;2023-11-19T00:44:50;32.38;;;14.07;;
52186;SDS011;38161;53.020;6.598;2023-11-19T00:49:46;29.90;;;10.25;;
52186;SDS011;38161;53.020;6.598;2023-11-19T00:52:14;25.40;;;11.82;;
52186;SDS011;38161;53.020;6.598;2023-11-19T00:54:40;30.13;;;10.98;;
52186;SDS011;38161;53.020;6.598;2023-11-19T00:57:06;35.05;;;11.52;;
52186;SDS011;38161;53.020;6.598;2023-11-19T00:59:32;31.42;;;13.27;;
52186;SDS011;38161;53.020;6.598;2023-11-19T01:01:58;35.78;;;9.68;;
52186;SDS011;38161;53.020;6.598;2023-11-19T01:04:29;28.50;;;8.77;;
52186;SDS011;38161;53.020;6.598;2023-11-19T01:06:55;33.10;;;10.50;;
52186;SDS011;38161;53.020;6.598;2023-11-19T01:09:21;30.75;;;8.55;;
52186;SDS011;38161;53.020;6.598;2023-11-19T01:11:47;30.85;;;8.98;;
52186;SDS011;38161;53.020;6.598;2023-11-19T01:14:12;42.95;;;11.85;;
52186;SDS011;38161;53.020;6.598;2023-11-19T01:16:38;33.20;;;8.38;;
52186;SDS011;38161;53.020;6.598;2023-11-19T01:19:04;37.78;;;9.82;;
52186;SDS011;38161;53.020;6.598;2023-11-19T01:21:30;38.40;;;10.10;;
52186;SDS011;38161;53.020;6.598;2023-11-19T01:23:59;26.23;;;7.20;;
52186;SDS011;38161;53.020;6.598;2023-11-19T01:26:26;28.42;;;8.07;;
52186;SDS011;38161;53.020;6.598;2023-11-19T01:28:51;29.05;;;8.77;;
52186;SDS011;38161;53.020;6.598;2023-11-19T01:31:18;35.45;;;6.53;;
52186;SDS011;38161;53.020;6.598;2023-11-19T01:33:45;33.63;;;7.72;;
52186;SDS011;38161;53.020;6.598;2023-11-19T01:36:15;28.75;;;6.25;;
52186;SDS011;38161;53.020;6.598;2023-11-19T01:38:41;24.17;;;6.20;;
52186;SDS011;38161;53.020;6.598;2023-11-19T01:41:07;23.85;;;5.68;;
52186;SDS011;38161;53.020;6.598;2023-11-19T01:43:37;27.15;;;5.97;;
52186;SDS011;38161;53.020;6.598;2023-11-19T01:46:06;28.33;;;6.68;;
52186;SDS011;38161;53.020;6.598;2023-11-19T01:48:36;30.13;;;7.50;;
52186;SDS011;38161;53.020;6.598;2023-11-19T01:51:08;29.30;;;6.50;;
52186;SDS011;38161;53.020;6.598;2023-11-19T01:56:02;20.05;;;5.78;;
52186;SDS011;38161;53.020;6.598;2023-11-19T01:58:29;28.20;;;7.35;;
52186;SDS011;38161;53.020;6.598;2023-11-19T02:03:22;29.73;;;7.13;;
52186;SDS011;38161;53.020;6.598;2023-11-19T02:05:51;33.25;;;7.78;;
52186;SDS011;38161;53.020;6.598;2023-11-19T02:08:18;32.45;;;6.45;;
52186;SDS011;38161;53.020;6.598;2023-11-19T02:10:45;30.55;;;7.43;;
52186;SDS011;38161;53.020;6.598;2023-11-19T02:13:11;28.00;;;7.45;;
52186;SDS011;38161;53.020;6.598;2023-11-19T02:15:40;25.27;;;5.50;;
52186;SDS011;38161;53.020;6.598;2023-11-19T02:18:19;26.98;;;6.35;;
52186;SDS011;38161;53.020;6.598;2023-11-19T02:20:52;27.38;;;6.30;;
52186;SDS011;38161;53.020;6.598;2023-11-19T02:23:18;25.90;;;6.43;;
52186;SDS011;38161;53.020;6.598;2023-11-19T02:28:31;29.33;;;5.97;;
52186;SDS011;38161;53.020;6.598;2023-11-19T02:30:58;24.67;;;6.30;;
52186;SDS011;38161;53.020;6.598;2023-11-19T02:33:25;29.02;;;6.25;;
52186;SDS011;38161;53.020;6.598;2023-11-19T02:35:50;26.40;;;6.03;;
52186;SDS011;38161;53.020;6.598;2023-11-19T02:38:16;26.40;;;6.38;;
52186;SDS011;38161;53.020;6.598;2023-11-19T02:40:42;31.83;;;7.88;;
52186;SDS011;38161;53.020;6.598;2023-11-19T02:43:08;27.58;;;6.30;;
52186;SDS011;38161;53.020;6.598;2023-11-19T02:45:34;26.08;;;5.20;;
52186;SDS011;38161;53.020;6.598;2023-11-19T02:48:01;29.05;;;6.55;;
52186;SDS011;38161;53.020;6.598;2023-11-19T02:50:27;25.15;;;5.80;;
52186;SDS011;38161;53.020;6.598;2023-11-19T02:52:55;27.00;;;6.60;;
52186;SDS011;38161;53.020;6.598;2023-11-19T02:55:21;35.58;;;6.40;;
52186;SDS011;38161;53.020;6.598;2023-11-19T02:57:49;26.88;;;6.30;;
52186;SDS011;38161;53.020;6.598;2023-11-19T03:00:17;23.23;;;5.90;;
52186;SDS011;38161;53.020;6.598;2023-11-19T03:02:48;27.83;;;5.95;;
52186;SDS011;38161;53.020;6.598;2023-11-19T03:05:24;30.23;;;6.72;;
52186;SDS011;38161;53.020;6.598;2023-11-19T03:07:51;21.92;;;6.57;;
52186;SDS011;38161;53.020;6.598;2023-11-19T03:10:17;30.92;;;6.63;;
52186;SDS011;38161;53.020;6.598;2023-11-19T03:12:44;28.80;;;5.90;;
52186;SDS011;38161;53.020;6.598;2023-11-19T03:15:13;26.42;;;5.68;;
52186;SDS011;38161;53.020;6.598;2023-11-19T03:17:40;23.20;;;6.18;;
52186;SDS011;38161;53.020;6.598;2023-11-19T03:20:10;24.63;;;6.07;;
52186;SDS011;38161;53.020;6.598;2023-11-19T03:22:42;32.92;;;5.95;;
52186;SDS011;38161;53.020;6.598;2023-11-19T03:25:11;25.77;;;6.45;;
52186;SDS011;38161;53.020;6.598;2023-11-19T03:27:38;23.48;;;5.95;;
52186;SDS011;38161;53.020;6.598;2023-11-19T03:30:07;29.02;;;5.93;;
52186;SDS011;38161;53.020;6.598;2023-11-19T03:32:35;22.67;;;5.38;;
52186;SDS011;38161;53.020;6.598;2023-11-19T03:35:01;45.22;;;7.10;;
52186;SDS011;38161;53.020;6.598;2023-11-19T03:37:29;25.85;;;5.60;;
52186;SDS011;38161;53.020;6.598;2023-11-19T03:39:57;29.95;;;6.65;;
52186;SDS011;38161;53.020;6.598;2023-11-19T03:42:25;24.02;;;5.97;;
52186;SDS011;38161;53.020;6.598;2023-11-19T03:44:52;25.48;;;6.07;;
52186;SDS011;38161;53.020;6.598;2023-11-19T03:47:19;22.70;;;6.13;;
52186;SDS011;38161;53.020;6.598;2023-11-19T03:52:15;26.30;;;6.40;;
52186;SDS011;38161;53.020;6.598;2023-11-19T03:54:41;24.25;;;5.75;;
52186;SDS011;38161;53.020;6.598;2023-11-19T03:57:08;32.30;;;7.47;;
52186;SDS011;38161;53.020;6.598;2023-11-19T03:59:37;30.70;;;6.78;;
52186;SDS011;38161;53.020;6.598;2023-11-19T04:02:03;22.10;;;5.78;;
52186;SDS011;38161;53.020;6.598;2023-11-19T04:04:29;54.28;;;6.55;;
52186;SDS011;38161;53.020;6.598;2023-11-19T04:06:55;26.65;;;6.47;;
52186;SDS011;38161;53.020;6.598;2023-11-19T04:09:21;34.03;;;6.15;;
52186;SDS011;38161;53.020;6.598;2023-11-19T04:11:47;26.83;;;6.47;;
52186;SDS011;38161;53.020;6.598;2023-11-19T04:14:13;28.80;;;7.05;;
52186;SDS011;38161;53.020;6.598;2023-11-19T04:16:40;37.47;;;7.53;;
52186;SDS011;38161;53.020;6.598;2023-11-19T04:19:06;26.73;;;5.82;;
52186;SDS011;38161;53.020;6.598;2023-11-19T04:21:33;30.40;;;7.10;;
52186;SDS011;38161;53.020;6.598;2023-11-19T04:23:59;27.52;;;6.07;;
52186;SDS011;38161;53.020;6.598;2023-11-19T04:26:26;34.35;;;7.15;;
52186;SDS011;38161;53.020;6.598;2023-11-19T04:28:51;28.88;;;7.55;;
52186;SDS011;38161;53.020;6.598;2023-11-19T04:31:17;33.95;;;6.93;;
52186;SDS011;38161;53.020;6.598;2023-11-19T04:33:43;30.50;;;7.45;;
52186;SDS011;38161;53.020;6.598;2023-11-19T04:36:12;27.67;;;7.72;;
52186;SDS011;38161;53.020;6.598;2023-11-19T04:38:44;27.83;;;7.00;;
52186;SDS011;38161;53.020;6.598;2023-11-19T04:41:11;31.88;;;7.75;;
52186;SDS011;38161;53.020;6.598;2023-11-19T04:43:37;32.85;;;6.63;;
52186;SDS011;38161;53.020;6.598;2023-11-19T04:46:06;35.95;;;7.25;;
52186;SDS011;38161;53.020;6.598;2023-11-19T04:48:32;26.48;;;5.85;;
52186;SDS011;38161;53.020;6.598;2023-11-19T04:50:57;30.45;;;7.15;;
52186;SDS011;38161;53.020;6.598;2023-11-19T04:53:23;34.58;;;7.05;;
52186;SDS011;38161;53.020;6.598;2023-11-19T04:55:49;31.33;;;6.22;;
52186;SDS011;38161;53.020;6.598;2023-11-19T04:58:15;33.72;;;5.82;;
52186;SDS011;38161;53.020;6.598;2023-11-19T05:00:41;33.60;;;6.53;;
52186;SDS011;38161;53.020;6.598;2023-11-19T05:03:07;29.00;;;6.65;;
52186;SDS011;38161;53.020;6.598;2023-11-19T05:05:33;27.15;;;6.18;;
52186;SDS011;38161;53.020;6.598;2023-11-19T05:07:59;32.85;;;6.80;;
52186;SDS011;38161;53.020;6.598;2023-11-19T05:10:25;29.20;;;7.07;;
52186;SDS011;38161;53.020;6.598;2023-11-19T05:12:51;30.85;;;6.80;;
52186;SDS011;38161;53.020;6.598;2023-11-19T05:15:17;29.40;;;7.30;;
52186;SDS011;38161;53.020;6.598;2023-11-19T05:17:43;29.25;;;6.45;;
52186;SDS011;38161;53.020;6.598;2023-11-19T05:20:10;32.10;;;6.38;;
52186;SDS011;38161;53.020;6.598;2023-11-19T05:22:41;29.92;;;7.18;;
52186;SDS011;38161;53.020;6.598;2023-11-19T05:25:08;26.52;;;5.82;;
52186;SDS011;38161;53.020;6.598;2023-11-19T05:27:35;26.10;;;6.47;;
52186;SDS011;38161;53.020;6.598;2023-11-19T05:30:02;35.22;;;7.95;;
52186;SDS011;38161;53.020;6.598;2023-11-19T05:32:28;29.90;;;6.05;;
52186;SDS011;38161;53.020;6.598;2023-11-19T05:34:54;31.60;;;6.35;;
52186;SDS011;38161;53.020;6.598;2023-11-19T05:37:20;28.33;;;6.80;;
52186;SDS011;38161;53.020;6.598;2023-11-19T05:39:46;27.45;;;6.65;;
52186;SDS011;38161;53.020;6.598;2023-11-19T05:42:12;28.88;;;7.00;;
52186;SDS011;38161;53.020;6.598;2023-11-19T05:44:38;34.45;;;7.03;;
52186;SDS011;38161;53.020;6.598;2023-11-19T05:47:04;31.70;;;6.85;;
52186;SDS011;38161;53.020;6.598;2023-11-19T05:49:30;30.92;;;6.50;;
52186;SDS011;38161;53.020;6.598;2023-11-19T05:51:56;33.13;;;6.65;;
52186;SDS011;38161;53.020;6.598;2023-11-19T05:54:22;27.95;;;6.20;;
52186;SDS011;38161;53.020;6.598;2023-11-19T05:56:48;31.55;;;6.70;;
52186;SDS011;38161;53.020;6.598;2023-11-19T05:59:15;31.60;;;6.10;;
52186;SDS011;38161;53.020;6.598;2023-11-19T06:01:46;36.45;;;6.80;;
52186;SDS011;38161;53.020;6.598;2023-11-19T06:04:11;28.02;;;6.10;;
52186;SDS011;38161;53.020;6.598;2023-11-19T06:06:37;29.17;;;6.00;;
52186;SDS011;38161;53.020;6.598;2023-11-19T06:09:04;35.85;;;6.50;;
52186;SDS011;38161;53.020;6.598;2023-11-19T06:11:32;25.13;;;6.22;;
52186;SDS011;38161;53.020;6.598;2023-11-19T06:13:59;27.63;;;6.93;;
52186;SDS011;38161;53.020;6.598;2023-11-19T06:16:25;27.23;;;5.88;;
52186;SDS011;38161;53.020;6.598;2023-11-19T06:18:51;27.48;;;5.22;;
52186;SDS011;38161;53.020;6.598;2023-11-19T06:21:18;32.00;;;6.30;;
52186;SDS011;38161;53.020;6.598;2023-11-19T06:23:44;26.92;;;5.75;;
52186;SDS011;38161;53.020;6.598;2023-11-19T06:26:12;37.22;;;6.65;;
52186;SDS011;38161;53.020;6.598;2023-11-19T06:28:39;26.55;;;5.80;;
52186;SDS011;38161;53.020;6.598;2023-11-19T06:31:05;31.02;;;5.90;;
52186;SDS011;38161;53.020;6.598;2023-11-19T06:33:31;21.60;;;5.10;;
52186;SDS011;38161;53.020;6.598;2023-11-19T06:35:58;34.03;;;6.80;;
52186;SDS011;38161;53.020;6.598;2023-11-19T06:38:25;34.63;;;6.07;;
52186;SDS011;38161;53.020;6.598;2023-11-19T06:40:50;36.17;;;6.22;;
52186;SDS011;38161;53.020;6.598;2023-11-19T06:43:16;32.20;;;6.20;;
52186;SDS011;38161;53.020;6.598;2023-11-19T06:45:43;33.25;;;6.25;;
52186;SDS011;38161;53.020;6.598;2023-11-19T06:48:09;33.78;;;7.13;;
52186;SDS011;38161;53.020;6.598;2023-11-19T06:50:34;27.45;;;5.85;;
52186;SDS011;38161;53.020;6.598;2023-11-19T06:53:00;28.63;;;6.97;;
52186;SDS011;38161;53.020;6.598;2023-11-19T06:55:26;27.67;;;6.60;;
52186;SDS011;38161;53.020;6.598;2023-11-19T06:57:54;38.60;;;6.22;;
52186;SDS011;38161;53.020;6.598;2023-11-19T07:00:24;30.30;;;6.68;;
52186;SDS011;38161;53.020;6.598;2023-11-19T07:02:50;26.75;;;6.18;;
52186;SDS011;38161;53.020;6.598;2023-11-19T07:05:16;34.03;;;6.95;;
52186;SDS011;38161;53.020;6.598;2023-11-19T07:10:09;31.23;;;6.00;;
52186;SDS011;38161;53.020;6.598;2023-11-19T07:15:01;25.90;;;6.15;;
52186;SDS011;38161;53.020;6.598;2023-11-19T07:17:29;29.05;;;5.10;;
52186;SDS011;38161;53.020;6.598;2023-11-19T07:19:55;29.17;;;5.88;;
52186;SDS011;38161;53.020;6.598;2023-11-19T07:22:24;33.47;;;6.57;;
52186;SDS011;38161;53.020;6.598;2023-11-19T07:24:57;27.63;;;6.72;;
52186;SDS011;38161;53.020;6.598;2023-11-19T07:27:23;30.17;;;8.40;;
52186;SDS011;38161;53.020;6.598;2023-11-19T07:29:50;24.13;;;5.47;;
52186;SDS011;38161;53.020;6.598;2023-11-19T07:32:17;30.17;;;5.72;;
52186;SDS011;38161;53.020;6.598;2023-11-19T07:34:43;27.63;;;6.00;;
52186;SDS011;38161;53.020;6.598;2023-11-19T07:37:09;52.75;;;16.20;;
52186;SDS011;38161;53.020;6.598;2023-11-19T07:39:35;66.45;;;23.60;;
52186;SDS011;38161;53.020;6.598;2023-11-19T07:42:03;54.53;;;20.17;;
52186;SDS011;38161;53.020;6.598;2023-11-19T07:44:29;61.03;;;21.52;;
52186;SDS011;38161;53.020;6.598;2023-11-19T07:46:55;37.00;;;9.95;;
52186;SDS011;38161;53.020;6.598;2023-11-19T07:49:21;25.48;;;7.88;;
52186;SDS011;38161;53.020;6.598;2023-11-19T07:51:47;31.98;;;8.23;;
52186;SDS011;38161;53.020;6.598;2023-11-19T07:54:13;34.10;;;9.30;;
52186;SDS011;38161;53.020;6.598;2023-11-19T07:56:39;35.28;;;7.15;;
52186;SDS011;38161;53.020;6.598;2023-11-19T07:59:05;31.92;;;6.38;;
52186;SDS011;38161;53.020;6.598;2023-11-19T08:01:32;29.13;;;7.20;;
52186;SDS011;38161;53.020;6.598;2023-11-19T08:03:58;22.55;;;6.53;;
52186;SDS011;38161;53.020;6.598;2023-11-19T08:06:24;24.77;;;6.53;;
52186;SDS011;38161;53.020;6.598;2023-11-19T08:09:03;23.23;;;6.65;;
52186;SDS011;38161;53.020;6.598;2023-11-19T08:11:32;30.60;;;6.40;;
52186;SDS011;38161;53.020;6.598;2023-11-19T08:13:58;26.20;;;6.25;;
52186;SDS011;38161;53.020;6.598;2023-11-19T08:16:24;29.27;;;6.80;;
52186;SDS011;38161;53.020;6.598;2023-11-19T08:18:50;25.88;;;6.60;;
52186;SDS011;38161;53.020;6.598;2023-11-19T08:21:16;30.45;;;6.28;;
52186;SDS011;38161;53.020;6.598;2023-11-19T08:23:42;24.05;;;6.20;;
52186;SDS011;38161;53.020;6.598;2023-11-19T08:26:09;32.63;;;8.95;;
52186;SDS011;38161;53.020;6.598;2023-11-19T08:28:35;36.20;;;6.78;;
52186;SDS011;38161;53.020;6.598;2023-11-19T08:31:02;29.65;;;7.22;;
52186;SDS011;38161;53.020;6.598;2023-11-19T08:33:30;24.67;;;6.50;;
52186;SDS011;38161;53.020;6.598;2023-11-19T08:35:56;32.53;;;6.72;;
52186;SDS011;38161;53.020;6.598;2023-11-19T08:38:23;32.78;;;7.78;;
52186;SDS011;38161;53.020;6.598;2023-11-19T08:40:50;28.40;;;6.43;;
52186;SDS011;38161;53.020;6.598;2023-11-19T08:45:43;37.38;;;6.82;;
52186;SDS011;38161;53.020;6.598;2023-11-19T08:48:09;36.47;;;10.45;;
52186;SDS011;38161;53.020;6.598;2023-11-19T08:50:35;41.60;;;10.32;;
52186;SDS011;38161;53.020;6.598;2023-11-19T08:53:02;43.85;;;14.13;;
52186;SDS011;38161;53.020;6.598;2023-11-19T08:55:31;35.67;;;11.15;;
52186;SDS011;38161;53.020;6.598;2023-11-19T08:57:57;40.38;;;9.43;;
52186;SDS011;38161;53.020;6.598;2023-11-19T09:00:23;38.17;;;15.93;;
52186;SDS011;38161;53.020;6.598;2023-11-19T09:02:51;43.28;;;13.38;;
52186;SDS011;38161;53.020;6.598;2023-11-19T09:05:18;41.63;;;8.63;;
52186;SDS011;38161;53.020;6.598;2023-11-19T09:07:44;29.90;;;9.48;;
52186;SDS011;38161;53.020;6.598;2023-11-19T09:10:10;33.22;;;10.80;;
52186;SDS011;38161;53.020;6.598;2023-11-19T09:15:03;35.65;;;8.90;;
52186;SDS011;38161;53.020;6.598;2023-11-19T09:17:29;45.80;;;17.70;;
52186;SDS011;38161;53.020;6.598;2023-11-19T09:19:55;29.42;;;9.10;;
52186;SDS011;38161;53.020;6.598;2023-11-19T09:22:21;35.03;;;9.32;;
52186;SDS011;38161;53.020;6.598;2023-11-19T09:24:48;54.25;;;18.15;;
52186;SDS011;38161;53.020;6.598;2023-11-19T09:27:14;32.85;;;9.15;;
52186;SDS011;38161;53.020;6.598;2023-11-19T09:29:41;38.15;;;12.13;;
52186;SDS011;38161;53.020;6.598;2023-11-19T09:32:08;48.33;;;16.35;;
52186;SDS011;38161;53.020;6.598;2023-11-19T09:34:34;35.30;;;10.30;;
52186;SDS011;38161;53.020;6.598;2023-11-19T09:37:00;27.85;;;8.52;;
52186;SDS011;38161;53.020;6.598;2023-11-19T09:41:52;30.73;;;7.95;;
52186;SDS011;38161;53.020;6.598;2023-11-19T09:44:18;28.27;;;7.47;;
52186;SDS011;38161;53.020;6.598;2023-11-19T09:46:44;28.20;;;7.05;;
52186;SDS011;38161;53.020;6.598;2023-11-19T09:49:11;36.92;;;7.07;;
52186;SDS011;38161;53.020;6.598;2023-11-19T09:51:39;40.30;;;7.82;;
52186;SDS011;38161;53.020;6.598;2023-11-19T09:54:06;28.45;;;7.32;;
52186;SDS011;38161;53.020;6.598;2023-11-19T09:56:33;26.13;;;6.25;;
52186;SDS011;38161;53.020;6.598;2023-11-19T09:59:02;33.10;;;8.30;;
52186;SDS011;38161;53.020;6.598;2023-11-19T10:01:29;33.97;;;6.85;;
52186;SDS011;38161;53.020;6.598;2023-11-19T10:03:57;31.70;;;7.95;;
52186;SDS011;38161;53.020;6.598;2023-11-19T10:06:24;26.65;;;7.05;;
52186;SDS011;38161;53.020;6.598;2023-11-19T10:08:52;31.73;;;7.85;;
52186;SDS011;38161;53.020;6.598;2023-11-19T10:11:18;27.58;;;6.60;;
52186;SDS011;38161;53.020;6.598;2023-11-19T10:13:44;28.33;;;7.75;;
52186;SDS011;38161;53.020;6.598;2023-11-19T10:16:12;27.85;;;7.05;;
52186;SDS011;38161;53.020;6.598;2023-11-19T10:18:45;35.30;;;8.05;;
52186;SDS011;38161;53.020;6.598;2023-11-19T10:21:13;34.05;;;6.95;;
52186;SDS011;38161;53.020;6.598;2023-11-19T10:23:48;29.80;;;6.22;;
52186;SDS011;38161;53.020;6.598;2023-11-19T10:26:17;27.83;;;6.80;;
52186;SDS011;38161;53.020;6.598;2023-11-19T10:28:45;31.35;;;7.03;;
52186;SDS011;38161;53.020;6.598;2023-11-19T10:31:15;38.83;;;8.38;;
52186;SDS011;38161;53.020;6.598;2023-11-19T10:33:42;32.92;;;9.25;;
52186;SDS011;38161;53.020;6.598;2023-11-19T10:36:11;34.83;;;8.52;;
52186;SDS011;38161;53.020;6.598;2023-11-19T10:38:38;33.45;;;7.45;;
52186;SDS011;38161;53.020;6.598;2023-11-19T10:43:30;20.05;;;5.05;;
52186;SDS011;38161;53.020;6.598;2023-11-19T10:46:09;33.08;;;8.90;;
52186;SDS011;38161;53.020;6.598;2023-11-19T10:48:37;34.08;;;6.60;;
52186;SDS011;38161;53.020;6.598;2023-11-19T10:53:33;27.40;;;9.85;;
52186;SDS011;38161;53.020;6.598;2023-11-19T10:56:06;24.92;;;6.88;;
52186;SDS011;38161;53.020;6.598;2023-11-19T10:58:36;32.33;;;6.55;;
52186;SDS011;38161;53.020;6.598;2023-11-19T11:01:13;26.88;;;6.72;;
52186;SDS011;38161;53.020;6.598;2023-11-19T11:03:44;21.42;;;5.93;;
52186;SDS011;38161;53.020;6.598;2023-11-19T11:06:11;26.80;;;6.50;;
52186;SDS011;38161;53.020;6.598;2023-11-19T11:08:39;26.30;;;6.80;;
52186;SDS011;38161;53.020;6.598;2023-11-19T11:13:32;27.88;;;9.25;;
52186;SDS011;38161;53.020;6.598;2023-11-19T11:18:25;26.10;;;6.95;;
52186;SDS011;38161;53.020;6.598;2023-11-19T11:20:52;40.20;;;9.38;;
52186;SDS011;38161;53.020;6.598;2023-11-19T11:26:33;39.08;;;11.40;;
52186;SDS011;38161;53.020;6.598;2023-11-19T11:37:00;35.50;;;9.45;;
52186;SDS011;38161;53.020;6.598;2023-11-19T11:39:39;29.92;;;7.13;;
52186;SDS011;38161;53.020;6.598;2023-11-19T11:48:22;23.17;;;7.97;;
52186;SDS011;38161;53.020;6.598;2023-11-19T11:50:23;25.95;;;6.00;;
52186;SDS011;38161;53.020;6.598;2023-11-19T11:57:53;28.60;;;7.90;;
52186;SDS011;38161;53.020;6.598;2023-11-19T12:02:56;26.90;;;6.10;;
52186;SDS011;38161;53.020;6.598;2023-11-19T12:05:23;29.13;;;6.75;;
52186;SDS011;38161;53.020;6.598;2023-11-19T12:10:37;28.63;;;6.15;;
52186;SDS011;38161;53.020;6.598;2023-11-19T12:13:17;27.42;;;5.65;;
52186;SDS011;38161;53.020;6.598;2023-11-19T12:18:31;25.23;;;6.57;;
52186;SDS011;38161;53.020;6.598;2023-11-19T12:20:58;29.05;;;6.30;;
52186;SDS011;38161;53.020;6.598;2023-11-19T12:23:31;31.90;;;6.18;;
52186;SDS011;38161;53.020;6.598;2023-11-19T12:25:57;28.95;;;5.35;;
52186;SDS011;38161;53.020;6.598;2023-11-19T12:28:24;29.17;;;6.88;;
52186;SDS011;38161;53.020;6.598;2023-11-19T12:30:53;27.65;;;5.28;;
52186;SDS011;38161;53.020;6.598;2023-11-19T12:33:31;29.90;;;6.88;;
52186;SDS011;38161;53.020;6.598;2023-11-19T12:35:57;25.48;;;5.57;;
52186;SDS011;38161;53.020;6.598;2023-11-19T12:38:24;21.80;;;5.45;;
52186;SDS011;38161;53.020;6.598;2023-11-19T12:41:24;23.02;;;5.93;;
52186;SDS011;38161;53.020;6.598;2023-11-19T12:43:45;25.38;;;6.20;;
52186;SDS011;38161;53.020;6.598;2023-11-19T12:46:21;32.63;;;6.53;;
52186;SDS011;38161;53.020;6.598;2023-11-19T12:48:48;28.27;;;6.00;;
52186;SDS011;38161;53.020;6.598;2023-11-19T12:51:15;20.52;;;5.13;;
52186;SDS011;38161;53.020;6.598;2023-11-19T12:53:51;27.83;;;5.50;;
52186;SDS011;38161;53.020;6.598;2023-11-19T12:56:20;33.03;;;6.05;;
52186;SDS011;38161;53.020;6.598;2023-11-19T12:58:46;34.97;;;5.85;;
52186;SDS011;38161;53.020;6.598;2023-11-19T13:01:18;25.05;;;5.25;;
52186;SDS011;38161;53.020;6.598;2023-11-19T13:03:46;21.33;;;4.70;;
52186;SDS011;38161;53.020;6.598;2023-11-19T13:06:14;24.65;;;5.53;;
52186;SDS011;38161;53.020;6.598;2023-11-19T13:08:41;24.10;;;5.82;;
52186;SDS011;38161;53.020;6.598;2023-11-19T13:11:15;30.85;;;6.80;;
52186;SDS011;38161;53.020;6.598;2023-11-19T13:13:59;26.23;;;6.22;;
52186;SDS011;38161;53.020;6.598;2023-11-19T13:16:29;42.70;;;6.07;;
52186;SDS011;38161;53.020;6.598;2023-11-19T13:18:56;24.02;;;5.43;;
52186;SDS011;38161;53.020;6.598;2023-11-19T13:21:22;28.35;;;7.15;;
52186;SDS011;38161;53.020;6.598;2023-11-19T13:26:15;26.60;;;5.05;;
52186;SDS011;38161;53.020;6.598;2023-11-19T13:28:41;26.60;;;5.32;;
52186;SDS011;38161;53.020;6.598;2023-11-19T13:33:34;21.42;;;5.03;;
52186;SDS011;38161;53.020;6.598;2023-11-19T13:35:59;23.65;;;4.93;;
52186;SDS011;38161;53.020;6.598;2023-11-19T13:38:34;22.27;;;5.05;;
52186;SDS011;38161;53.020;6.598;2023-11-19T13:41:03;26.17;;;6.05;;
52186;SDS011;38161;53.020;6.598;2023-11-19T13:43:30;25.33;;;5.22;;
52186;SDS011;38161;53.020;6.598;2023-11-19T13:45:57;26.92;;;5.47;;
52186;SDS011;38161;53.020;6.598;2023-11-19T13:50:51;22.45;;;5.50;;
52186;SDS011;38161;53.020;6.598;2023-11-19T13:53:17;24.88;;;5.03;;
52186;SDS011;38161;53.020;6.598;2023-11-19T13:55:43;23.60;;;4.63;;
52186;SDS011;38161;53.020;6.598;2023-11-19T13:58:11;23.23;;;5.25;;
52186;SDS011;38161;53.020;6.598;2023-11-19T14:03:03;14.85;;;4.90;;
52186;SDS011;38161;53.020;6.598;2023-11-19T14:05:30;25.77;;;5.68;;
52186;SDS011;38161;53.020;6.598;2023-11-19T14:07:56;23.50;;;5.57;;
52186;SDS011;38161;53.020;6.598;2023-11-19T14:12:48;26.90;;;4.53;;
52186;SDS011;38161;53.020;6.598;2023-11-19T14:15:17;27.63;;;5.65;;
52186;SDS011;38161;53.020;6.598;2023-11-19T14:17:43;26.08;;;5.95;;
52186;SDS011;38161;53.020;6.598;2023-11-19T14:22:42;19.45;;;4.47;;
52186;SDS011;38161;53.020;6.598;2023-11-19T14:25:09;22.42;;;4.80;;
52186;SDS011;38161;53.020;6.598;2023-11-19T14:27:36;24.90;;;5.25;;
52186;SDS011;38161;53.020;6.598;2023-11-19T14:30:04;28.00;;;5.25;;
52186;SDS011;38161;53.020;6.598;2023-11-19T14:32:31;20.88;;;5.47;;
52186;SDS011;38161;53.020;6.598;2023-11-19T14:34:57;22.52;;;5.57;;
52186;SDS011;38161;53.020;6.598;2023-11-19T14:37:23;21.17;;;5.43;;
52186;SDS011;38161;53.020;6.598;2023-11-19T14:39:49;38.67;;;10.65;;
52186;SDS011;38161;53.020;6.598;2023-11-19T14:42:16;32.60;;;10.35;;
52186;SDS011;38161;53.020;6.598;2023-11-19T14:44:42;25.25;;;7.93;;
52186;SDS011;38161;53.020;6.598;2023-11-19T14:47:08;34.15;;;10.23;;
52186;SDS011;38161;53.020;6.598;2023-11-19T14:49:35;24.92;;;6.55;;
52186;SDS011;38161;53.020;6.598;2023-11-19T14:52:03;26.35;;;10.05;;
52186;SDS011;38161;53.020;6.598;2023-11-19T14:54:30;25.38;;;9.43;;
52186;SDS011;38161;53.020;6.598;2023-11-19T14:56:56;25.95;;;7.60;;
52186;SDS011;38161;53.020;6.598;2023-11-19T14:59:24;31.17;;;6.43;;
52186;SDS011;38161;53.020;6.598;2023-11-19T15:01:50;23.33;;;7.03;;
52186;SDS011;38161;53.020;6.598;2023-11-19T15:04:16;22.20;;;6.45;;
52186;SDS011;38161;53.020;6.598;2023-11-19T15:06:42;26.98;;;7.80;;
52186;SDS011;38161;53.020;6.598;2023-11-19T15:09:09;20.20;;;5.50;;
52186;SDS011;38161;53.020;6.598;2023-11-19T15:11:37;22.02;;;6.80;;
52186;SDS011;38161;53.020;6.598;2023-11-19T15:14:02;24.90;;;9.43;;
52186;SDS011;38161;53.020;6.598;2023-11-19T15:16:28;33.95;;;8.25;;
52186;SDS011;38161;53.020;6.598;2023-11-19T15:18:59;21.35;;;7.97;;
52186;SDS011;38161;53.020;6.598;2023-11-19T15:21:28;35.05;;;10.32;;
52186;SDS011;38161;53.020;6.598;2023-11-19T15:23:57;21.92;;;7.32;;
52186;SDS011;38161;53.020;6.598;2023-11-19T15:26:23;26.17;;;8.18;;
52186;SDS011;38161;53.020;6.598;2023-11-19T15:28:49;21.73;;;6.28;;
52186;SDS011;38161;53.020;6.598;2023-11-19T15:31:15;22.42;;;5.63;;
52186;SDS011;38161;53.020;6.598;2023-11-19T15:33:42;21.40;;;5.45;;
52186;SDS011;38161;53.020;6.598;2023-11-19T15:36:08;16.95;;;5.90;;
52186;SDS011;38161;53.020;6.598;2023-11-19T15:38:34;22.67;;;6.57;;
52186;SDS011;38161;53.020;6.598;2023-11-19T15:41:00;28.05;;;8.30;;
52186;SDS011;38161;53.020;6.598;2023-11-19T15:43:28;30.60;;;15.60;;
52186;SDS011;38161;53.020;6.598;2023-11-19T15:45:54;29.55;;;14.30;;
52186;SDS011;38161;53.020;6.598;2023-11-19T15:48:20;27.10;;;11.82;;
52186;SDS011;38161;53.020;6.598;2023-11-19T15:50:46;24.13;;;10.73;;
52186;SDS011;38161;53.020;6.598;2023-11-19T15:53:12;57.88;;;28.45;;